.
WxDataArchive / Data Records for 2011-06-25
2011-06-24 June 2011 2011-06-26

Data Records for Saturday, 25 June 2011

Time	Temp	Chill	HIndex	Humid	Dewpt	 Wind 	HiWind	WindDir	Rain 	Barom 
-----	----	-----	------	-----	-----	------	------	-------	-----	----- 
00:00	60.9	60.9	60.9	88	57.3	0	1	292	0.00	29.849 
00:05	61.0	61.0	61.0	88	57.4	0	1	292	0.00	29.849 
00:10	61.0	61.0	61.0	88	57.4	0	1	292	0.00	29.849 
00:15	61.2	61.2	61.2	88	57.6	0	0	---	0.00	29.842 
00:20	61.2	61.2	61.2	88	57.6	0	1	292	0.00	29.842 
00:25	61.2	61.2	61.2	87	57.3	0	2	292	0.00	29.842 
00:30	61.3	61.3	61.3	87	57.4	0	0	---	0.00	29.841 
00:35	61.3	61.3	61.3	87	57.4	0	1	292	0.00	29.841 
00:40	61.3	61.3	61.3	87	57.4	0	1	292	0.00	29.841 
00:45	61.3	61.3	61.3	87	57.4	0	2	292	0.00	29.843 
00:50	61.3	61.3	61.3	87	57.4	0	2	292	0.00	29.843 
00:55	61.3	61.3	61.3	87	57.4	0	2	292	0.00	29.843 
01:00	61.3	61.3	61.3	87	57.4	0	2	292	0.00	29.839 
01:05	61.3	61.3	61.3	87	57.4	1	2	292	0.00	29.839 
01:10	61.5	61.5	61.5	87	57.6	0	1	292	0.00	29.839 
01:15	61.5	61.5	61.5	86	57.3	0	2	292	0.00	29.838 
01:20	61.5	61.5	61.5	86	57.3	0	1	292	0.00	29.838 
01:25	61.5	61.5	61.5	86	57.3	0	2	292	0.00	29.838 
01:30	61.5	61.5	61.5	86	57.3	0	3	292	0.00	29.838 
01:35	61.5	61.5	61.5	86	57.3	0	2	292	0.00	29.838 
01:40	61.5	61.5	61.5	86	57.3	0	1	292	0.00	29.838 
01:45	61.5	61.5	61.5	86	57.3	0	1	292	0.00	29.838 
01:50	61.5	61.5	61.5	86	57.3	0	2	292	0.00	29.838 
01:55	61.5	61.5	61.5	87	57.6	0	1	292	0.00	29.838 
02:00	61.5	61.5	61.5	87	57.6	0	1	292	0.00	29.838 
02:05	61.5	61.5	61.5	87	57.6	0	2	292	0.00	29.838 
02:10	61.6	61.6	61.6	87	57.7	0	1	292	0.00	29.838 
02:15	61.6	61.6	61.6	87	57.7	0	1	292	0.00	29.840 
02:20	61.6	61.6	61.6	87	57.7	0	1	292	0.00	29.840 
02:25	61.6	61.6	61.6	86	57.4	0	3	292	0.00	29.840 
02:30	61.6	61.6	61.6	86	57.4	0	1	292	0.00	29.840 
02:35	61.6	61.6	61.6	86	57.4	0	2	292	0.00	29.840 
02:40	61.6	61.6	61.6	86	57.4	0	2	292	0.00	29.840 
02:45	61.6	61.6	61.6	86	57.4	0	2	292	0.00	29.836 
02:50	61.6	61.6	61.6	86	57.4	1	3	292	0.00	29.836 
02:55	61.8	61.8	61.8	86	57.6	0	2	292	0.00	29.836 
03:00	61.8	61.8	61.8	86	57.6	0	3	292	0.00	29.839 
03:05	61.8	61.8	61.8	85	57.2	1	3	292	0.00	29.839 
03:10	61.8	61.8	61.8	85	57.2	1	3	292	0.00	29.839 
03:15	61.8	61.8	61.8	85	57.2	0	2	292	0.00	29.838 
03:20	62.0	62.0	62.0	85	57.4	0	3	292	0.00	29.838 
03:25	62.0	62.0	62.0	85	57.4	1	3	292	0.00	29.838 
03:30	62.0	62.0	62.0	85	57.4	1	3	292	0.00	29.843 
03:35	62.0	62.0	62.0	85	57.4	1	4	292	0.00	29.843 
03:40	62.0	62.0	62.0	85	57.4	0	2	292	0.00	29.843 
03:45	62.0	62.0	62.0	86	57.8	1	3	292	0.00	29.849 
03:50	62.0	62.0	62.0	86	57.8	1	3	292	0.00	29.849 
03:55	62.0	62.0	62.0	85	57.4	1	4	292	0.00	29.849 
04:00	62.1	62.1	62.1	86	57.9	1	4	292	0.00	29.854 
04:05	62.0	62.0	62.0	86	57.8	0	2	292	0.00	29.854 
04:10	62.0	62.0	62.0	86	57.8	1	3	292	0.00	29.854 
04:15	62.1	62.1	62.1	85	57.5	1	2	292	0.00	29.858 
04:20	62.1	62.1	62.1	85	57.5	1	2	292	0.00	29.858 
04:25	62.1	62.1	62.1	85	57.5	1	4	292	0.00	29.858 
04:30	62.1	62.1	62.1	85	57.5	1	2	292	0.00	29.868 
04:35	62.1	62.1	62.1	85	57.5	1	3	292	0.00	29.868 
04:40	62.0	62.0	62.0	85	57.4	1	5	270	0.00	29.868 
04:45	62.0	62.0	62.0	85	57.4	0	2	270	0.00	29.873 
04:50	61.8	61.8	61.8	86	57.6	1	2	270	0.00	29.873 
04:55	61.6	61.6	61.6	86	57.4	1	3	270	0.00	29.873 
05:00	61.6	61.6	61.6	86	57.4	1	3	270	0.00	29.874 
05:05	61.5	61.5	61.5	86	57.3	1	3	270	0.00	29.874 
05:10	61.5	61.5	61.5	87	57.6	0	2	270	0.00	29.874 
05:15	61.3	61.3	61.3	87	57.4	0	2	270	0.00	29.873 
05:20	61.2	61.2	61.2	87	57.3	0	2	270	0.00	29.873 
05:25	61.0	61.0	61.0	88	57.4	0	1	270	0.00	29.873 
05:30	60.9	60.9	60.9	88	57.3	0	1	270	0.00	29.875 
05:35	60.7	60.7	60.7	88	57.1	0	1	270	0.00	29.875 
05:40	60.5	60.5	60.5	88	56.9	0	1	270	0.00	29.875 
05:45	60.5	60.5	60.5	89	57.2	0	1	270	0.00	29.879 
05:50	60.4	60.4	60.4	89	57.1	0	1	270	0.00	29.879 
05:55	60.2	60.2	60.2	89	56.9	0	1	270	0.00	29.879 
06:00	60.2	60.2	60.2	90	57.3	0	1	270	0.00	29.885 
06:05	60.1	60.1	60.1	90	57.2	0	0	---	0.00	29.885 
06:10	60.1	60.1	60.1	90	57.2	0	1	270	0.00	29.885 
06:15	60.1	60.1	60.1	91	57.5	0	2	270	0.00	29.890 
06:20	60.1	60.1	60.1	91	57.5	0	2	270	0.00	29.890 
06:25	60.1	60.1	60.1	91	57.5	0	2	270	0.00	29.890 
06:30	59.9	59.9	59.9	91	57.3	0	1	270	0.00	29.897 
06:35	60.1	60.1	60.1	91	57.5	0	2	270	0.00	29.897 
06:40	59.9	59.9	59.9	91	57.3	0	1	270	0.00	29.897 
06:45	60.1	60.1	60.1	91	57.5	0	1	270	0.00	29.899 
06:50	60.1	60.1	60.1	91	57.5	0	1	270	0.00	29.899 
06:55	60.1	60.1	60.1	92	57.8	0	2	270	0.00	29.899 
07:00	60.2	60.2	60.2	92	57.9	0	1	270	0.00	29.905 
07:05	60.4	60.4	60.4	92	58.1	0	2	270	0.00	29.905 
07:10	60.5	60.5	60.5	91	57.9	0	2	270	0.00	29.905 
07:15	60.7	60.7	60.7	91	58.1	0	1	270	0.00	29.901 
07:20	60.9	60.9	60.9	91	58.3	0	2	270	0.00	29.901 
07:25	61.2	61.2	61.2	91	58.5	0	2	270	0.00	29.901 
07:30	61.3	61.3	61.3	90	58.3	1	3	292	0.00	29.896 
07:35	61.6	61.6	61.6	89	58.3	1	3	292	0.00	29.896 
07:40	62.0	62.0	62.0	88	58.4	1	3	292	0.00	29.896 
07:45	62.3	62.3	62.3	88	58.7	1	3	292	0.00	29.902 
07:50	62.6	62.6	62.6	87	58.7	1	4	270	0.00	29.902 
07:55	62.7	62.7	62.7	86	58.4	2	4	338	0.00	29.902 
08:00	63.1	63.1	63.1	86	58.8	1	3	315	0.00	29.903 
08:05	63.4	63.4	63.4	85	58.8	2	5	315	0.00	29.903 
08:10	63.7	63.7	63.7	84	58.8	2	3	292	0.00	29.903 
08:15	64.0	64.0	64.0	84	59.1	2	5	270	0.00	29.903 
08:20	64.2	64.2	64.2	83	58.9	1	5	270	0.00	29.903 
08:25	64.3	64.3	64.3	82	58.7	2	5	292	0.00	29.903 
08:30	64.7	64.7	64.7	81	58.7	2	5	270	0.00	29.903 
08:35	65.0	65.0	65.0	81	59.0	1	4	270	0.00	29.903 
08:40	65.5	65.5	65.5	81	59.5	1	3	270	0.00	29.903 
08:45	65.8	65.8	65.8	79	59.1	2	3	270	0.00	29.903 
08:50	66.1	66.1	66.1	78	59.0	2	5	270	0.00	29.903 
08:55	66.4	66.4	66.4	77	59.0	2	5	270	0.00	29.903 
09:00	66.8	66.8	66.8	75	58.6	2	6	270	0.00	29.899 
09:05	67.1	67.1	67.1	73	58.1	1	3	270	0.00	29.899 
09:10	67.3	67.3	67.3	72	58.0	2	5	292	0.00	29.899 
09:15	67.3	67.3	67.3	70	57.2	3	10	292	0.00	29.911 
09:20	67.6	67.6	67.6	70	57.5	3	6	292	0.00	29.911 
09:25	67.6	67.6	67.6	69	57.1	2	4	315	0.00	29.911 
09:30	67.9	67.9	67.9	69	57.3	2	5	315	0.00	29.915 
09:35	68.1	68.1	68.1	67	56.7	2	5	292	0.00	29.915 
09:40	68.3	68.3	68.3	66	56.5	2	5	292	0.00	29.915 
09:45	68.4	68.4	68.4	67	57.0	1	2	0	0.00	29.906 
09:50	68.6	68.6	68.6	64	55.9	3	5	292	0.00	29.906 
09:55	68.8	68.8	68.8	65	56.5	2	4	292	0.00	29.906 
10:00	69.1	69.1	69.1	65	56.8	2	6	292	0.00	29.910 
10:05	69.1	69.1	69.1	64	56.4	2	5	292	0.00	29.910 
10:10	69.1	69.1	69.1	62	55.5	2	4	292	0.00	29.910 
10:15	69.4	69.4	69.4	65	57.1	1	3	315	0.00	29.934 
10:20	69.8	69.8	69.8	62	56.2	1	3	315	0.00	29.934 
10:25	69.9	69.9	69.9	61	55.8	1	4	0	0.00	29.934 
10:30	69.9	69.9	69.9	61	55.8	1	3	292	0.00	29.932 
10:35	69.9	69.9	69.9	59	54.9	2	6	292	0.00	29.932 
10:40	70.1	70.1	70.1	59	55.1	2	4	315	0.00	29.932 
10:45	70.3	70.3	70.3	59	55.3	1	2	315	0.00	29.929 
10:50	70.8	70.8	70.8	59	55.7	1	3	315	0.00	29.929 
10:55	71.1	71.1	71.1	58	55.6	1	4	315	0.00	29.929 
11:00	71.3	71.3	71.3	58	55.7	2	5	270	0.00	29.923 
11:05	71.5	71.5	71.5	56	55.0	1	3	270	0.00	29.923 
11:10	71.3	71.3	71.3	55	54.3	1	3	315	0.00	29.923 
11:15	71.8	71.8	71.8	58	56.2	1	4	90	0.00	29.920 
11:20	72.1	72.1	72.1	55	55.0	1	3	90	0.00	29.920 
11:25	72.5	72.5	72.5	57	56.4	1	3	90	0.00	29.920 
11:30	72.8	72.8	72.8	55	55.7	0	1	90	0.00	29.925 
11:35	72.8	72.8	72.8	53	54.7	1	4	292	0.00	29.925 
11:40	72.7	72.7	72.7	55	55.6	2	5	292	0.00	29.925 
11:45	72.7	72.7	72.7	55	55.6	1	5	270	0.00	29.931 
11:50	73.0	73.0	73.0	56	56.4	1	2	270	0.00	29.931 
11:55	73.2	73.2	73.2	56	56.5	1	3	292	0.00	29.931 
12:00	73.3	73.3	73.3	53	55.1	1	3	292	0.00	29.951 
12:05	73.2	73.2	73.2	53	55.0	1	3	292	0.00	29.951 
12:10	73.3	73.3	73.3	53	55.1	1	2	292	0.00	29.951 
12:15	73.5	73.5	73.5	52	54.8	2	4	292	0.00	29.944 
12:20	73.3	73.3	73.3	54	55.6	2	4	292	0.00	29.944 
12:25	73.7	73.7	73.7	55	56.5	1	3	292	0.00	29.944 
12:30	74.0	74.0	74.0	54	56.3	1	4	270	0.00	29.942 
12:35	74.6	74.6	74.6	53	56.3	1	3	0	0.00	29.942 
12:40	74.4	74.4	74.4	53	56.1	1	3	338	0.00	29.942 
12:45	74.4	74.4	74.4	49	54.0	1	3	338	0.00	29.948 
12:50	74.4	74.4	74.4	52	55.6	0	2	338	0.00	29.948 
12:55	74.4	74.4	74.4	50	54.5	2	4	270	0.00	29.948 
13:00	74.4	74.4	74.4	50	54.5	1	4	292	0.00	29.946 
13:05	74.9	74.9	74.9	50	55.0	1	6	90	0.00	29.946 
13:10	75.3	75.3	77.7	51	55.9	0	2	45	0.00	29.946 
13:15	75.6	75.6	77.9	50	55.6	1	3	112	0.00	29.944 
13:20	75.6	75.6	77.9	50	55.6	1	5	315	0.00	29.944 
13:25	75.8	75.8	78.0	50	55.8	1	3	315	0.00	29.944 
13:30	75.8	75.8	78.0	48	54.7	2	5	292	0.00	29.944 
13:35	76.0	76.0	78.0	48	54.9	1	5	112	0.00	29.944 
13:40	76.3	76.3	78.2	48	55.1	0	2	112	0.00	29.944 
13:45	76.5	76.5	78.2	46	54.2	1	5	112	0.00	29.940 
13:50	76.7	76.7	78.4	48	55.5	1	4	270	0.00	29.940 
13:55	76.0	76.0	78.0	48	54.9	0	2	270	0.00	29.940 
14:00	75.8	75.8	78.0	49	55.3	0	2	270	0.00	29.939 
14:05	76.1	76.1	78.1	48	55.0	1	4	270	0.00	29.939 
14:10	76.3	76.3	78.2	49	55.7	1	3	270	0.00	29.939 
14:15	76.8	76.8	78.4	48	55.6	0	2	270	0.00	29.939 
14:20	77.0	77.0	78.6	49	56.4	1	3	270	0.00	29.939 
14:25	77.2	77.2	78.6	47	55.4	1	3	270	0.00	29.939 
14:30	77.4	77.4	78.8	48	56.1	1	3	270	0.00	29.929 
14:35	77.6	77.6	78.8	46	55.2	0	2	270	0.00	29.929 
14:40	77.6	77.6	78.7	43	53.3	1	4	270	0.00	29.929 
14:45	77.4	77.4	78.6	45	54.4	2	4	270	0.00	29.929 
14:50	77.6	77.6	78.9	49	56.9	1	3	292	0.00	29.929 
14:55	77.9	77.9	79.1	48	56.6	0	3	292	0.00	29.929 
15:00	77.6	77.6	78.8	45	54.6	0	2	292	0.00	29.925 
15:05	77.4	77.4	78.7	46	55.0	1	4	292	0.00	29.925 
15:10	77.2	77.2	78.6	47	55.4	0	3	292	0.00	29.925 
15:15	77.4	77.4	78.6	45	54.4	0	3	292	0.00	29.926 
15:20	77.6	77.6	78.7	43	53.3	0	2	292	0.00	29.926 
15:25	77.7	77.7	78.7	42	52.8	1	3	292	0.00	29.926 
15:30	77.4	77.4	78.6	44	53.8	2	5	292	0.00	29.927 
15:35	77.4	77.4	78.6	44	53.8	1	4	292	0.00	29.927 
15:40	77.4	77.4	78.6	44	53.8	0	2	292	0.00	29.927 
15:45	77.7	77.7	78.9	46	55.2	1	3	68	0.00	29.924 
15:50	77.9	77.9	78.9	44	54.2	0	2	68	0.00	29.924 
15:55	78.1	78.1	78.9	42	53.1	1	3	292	0.00	29.924 
16:00	78.5	78.5	79.4	46	56.0	0	3	292	0.00	29.927 
16:05	79.0	79.0	79.4	42	53.9	0	1	292	0.00	29.927 
16:10	78.5	78.5	79.2	43	54.1	1	3	292	0.00	29.927 
16:15	78.1	78.1	79.0	44	54.4	1	4	292	0.00	29.924 
16:20	77.9	77.9	78.7	40	51.6	2	5	270	0.00	29.924 
16:25	78.1	78.1	78.9	43	53.8	0	4	270	0.00	29.924 
16:30	78.1	78.1	78.9	42	53.1	1	3	270	0.00	29.921 
16:35	78.5	78.5	79.3	45	55.4	1	3	292	0.00	29.921 
16:40	78.1	78.1	78.9	42	53.1	2	4	270	0.00	29.921 
16:45	77.6	77.6	78.7	43	53.3	1	3	270	0.00	29.926 
16:50	77.7	77.7	78.8	44	54.0	1	3	270	0.00	29.926 
16:55	78.3	78.3	79.1	44	54.6	0	2	270	0.00	29.926 
17:00	78.1	78.1	78.9	42	53.1	1	3	338	0.00	29.930 
17:05	77.9	77.9	78.7	41	52.3	1	3	338	0.00	29.930 
17:10	77.6	77.6	78.7	44	53.9	0	2	338	0.00	29.930 
17:15	77.4	77.4	78.6	44	53.8	1	4	270	0.00	29.932 
17:20	77.2	77.2	78.5	43	52.9	0	2	270	0.00	29.932 
17:25	77.4	77.4	78.6	44	53.8	0	1	270	0.00	29.932 
17:30	78.1	78.1	78.9	43	53.8	1	3	270	0.00	29.929 
17:35	78.3	78.3	79.0	42	53.3	1	3	338	0.00	29.929 
17:40	78.3	78.3	78.9	40	52.0	0	3	315	0.00	29.929 
17:45	78.6	78.6	79.0	40	52.2	1	3	292	0.00	29.936 
17:50	78.8	78.8	79.2	41	53.1	1	4	270	0.00	29.936 
17:55	78.6	78.6	79.1	41	52.9	0	2	270	0.00	29.936 
18:00	78.3	78.3	79.0	42	53.3	1	3	270	0.00	29.940 
18:05	77.4	77.4	78.6	43	53.1	1	2	270	0.00	29.940 
18:10	77.0	77.0	78.4	43	52.8	0	1	270	0.00	29.940 
18:15	76.7	76.7	78.2	43	52.5	0	2	270	0.00	29.942 
18:20	76.5	76.5	78.1	43	52.3	1	4	292	0.00	29.942 
18:25	76.5	76.5	78.2	44	52.9	0	1	292	0.00	29.942 
18:30	76.5	76.5	78.2	44	52.9	0	2	292	0.00	29.937 
18:35	76.3	76.3	78.1	44	52.8	0	2	292	0.00	29.937 
18:40	76.3	76.3	78.1	44	52.8	0	2	315	0.00	29.937 
18:45	76.5	76.5	78.2	45	53.6	0	1	315	0.00	29.935 
18:50	76.8	76.8	78.3	43	52.6	0	2	315	0.00	29.935 
18:55	77.2	77.2	78.5	44	53.6	0	1	315	0.00	29.935 
19:00	77.4	77.4	78.6	43	53.1	0	1	315	0.00	29.941 
19:05	77.7	77.7	78.7	42	52.8	1	2	315	0.00	29.941 
19:10	77.6	77.6	78.6	42	52.7	0	3	315	0.00	29.941 
19:15	77.4	77.4	78.6	43	53.1	1	3	315	0.00	29.944 
19:20	77.2	77.2	78.5	44	53.6	0	2	292	0.00	29.944 
19:25	76.8	76.8	78.3	45	53.8	0	1	292	0.00	29.944 
19:30	76.7	76.7	78.3	46	54.3	0	1	292	0.00	29.949 
19:35	76.7	76.7	78.3	45	53.7	0	1	292	0.00	29.949 
19:40	76.3	76.3	78.1	46	54.0	0	1	292	0.00	29.949 
19:45	76.0	76.0	78.0	46	53.7	0	1	292	0.00	29.946 
19:50	75.8	75.8	77.9	46	53.5	0	1	292	0.00	29.946 
19:55	75.6	75.6	77.9	48	54.5	0	0	---	0.00	29.946 
20:00	75.3	75.3	77.7	48	54.2	0	1	292	0.00	29.946 
20:05	75.3	75.3	77.7	47	53.7	0	0	---	0.00	29.946 
20:10	75.3	75.3	77.7	48	54.2	0	1	292	0.00	29.946 
20:15	75.3	75.3	77.7	49	54.8	0	1	292	0.00	29.947 
20:20	75.1	75.1	77.7	49	54.6	0	0	---	0.00	29.947 
20:25	74.9	74.9	74.9	50	55.0	0	0	---	0.00	29.947 
20:30	74.7	74.7	74.7	50	54.8	0	0	---	0.00	29.941 
20:35	74.6	74.6	74.6	51	55.3	0	0	---	0.00	29.941 
20:40	74.4	74.4	74.4	52	55.6	0	0	---	0.00	29.941 
20:45	74.0	74.0	74.0	52	55.2	0	0	---	0.00	29.940 
20:50	73.9	73.9	73.9	54	56.2	0	0	---	0.00	29.940 
20:55	73.5	73.5	73.5	53	55.3	0	0	---	0.00	29.940 
21:00	73.2	73.2	73.2	54	55.5	0	0	---	0.00	29.942 
21:05	72.7	72.7	72.7	55	55.6	0	0	---	0.00	29.942 
21:10	72.3	72.3	72.3	56	55.7	0	0	---	0.00	29.942 
21:15	71.6	71.6	71.6	57	55.5	0	0	---	0.00	29.943 
21:20	71.1	71.1	71.1	59	56.0	0	0	---	0.00	29.943 
21:25	70.8	70.8	70.8	60	56.2	0	0	---	0.00	29.943 
21:30	70.3	70.3	70.3	62	56.7	0	0	---	0.00	29.944 
21:35	69.9	69.9	69.9	63	56.7	0	0	---	0.00	29.944 
21:40	69.6	69.6	69.6	65	57.3	0	0	---	0.00	29.944 
21:45	69.3	69.3	69.3	65	57.0	0	0	---	0.00	29.944 
21:50	69.1	69.1	69.1	66	57.3	0	0	---	0.00	29.944 
21:55	68.9	68.9	68.9	65	56.6	0	0	---	0.00	29.944 
22:00	68.8	68.8	68.8	64	56.1	0	0	---	0.00	29.948 
22:05	68.6	68.6	68.6	63	55.5	0	0	---	0.00	29.948 
22:10	68.8	68.8	68.8	64	56.1	0	0	---	0.00	29.948 
22:15	68.9	68.9	68.9	64	56.2	0	0	---	0.00	29.954 
22:20	69.1	69.1	69.1	64	56.4	0	0	---	0.00	29.954 
22:25	69.1	69.1	69.1	64	56.4	0	0	---	0.00	29.954 
22:30	68.9	68.9	68.9	64	56.2	0	0	---	0.00	29.949 
22:35	68.9	68.9	68.9	64	56.2	0	0	---	0.00	29.949 
22:40	68.8	68.8	68.8	65	56.5	0	0	---	0.00	29.949 
22:45	68.6	68.6	68.6	64	55.9	0	0	---	0.00	29.942 
22:50	68.4	68.4	68.4	65	56.2	0	0	---	0.00	29.942 
22:55	68.3	68.3	68.3	65	56.1	0	0	---	0.00	29.942 
23:00	67.9	67.9	67.9	65	55.7	0	0	---	0.00	29.942 
23:05	67.8	67.8	67.8	67	56.4	0	0	---	0.00	29.942 
23:10	67.3	67.3	67.3	67	56.0	0	0	---	0.00	29.942 
23:15	66.9	66.9	66.9	67	55.6	0	0	---	0.00	29.940 
23:20	66.8	66.8	66.8	69	56.3	0	0	---	0.00	29.940 
23:25	66.4	66.4	66.4	70	56.3	0	0	---	0.00	29.940 
23:30	66.0	66.0	66.0	71	56.3	0	0	---	0.00	29.946 
23:35	65.6	65.6	65.6	72	56.3	0	0	---	0.00	29.946 
23:40	65.5	65.5	65.5	73	56.6	0	0	---	0.00	29.946 
23:45	65.3	65.3	65.3	74	56.8	0	0	---	0.00	29.948 
23:50	65.2	65.2	65.2	75	57.1	0	0	---	0.00	29.948 
23:55	65.2	65.2	65.2	75	57.1	0	0	---	0.00	29.948 

CoCoRaHS
IN-AL-39
A2 Web Hosting
Creative Commons License
GoDaddy
search engine by freefind advanced

loaded 2018-11-20 06:39:26 • last modified 2010-11-18 10:43:29
Privacy PolicyDisclaimer
• wx.awcolley.com is powered by PmWiki v.2002016 •
• all content (unless otherwise noted) © 2018 A W Colley